createdAt,value
2022-08-22T00:05:41.030Z,38.9
2022-08-22T00:11:14.139Z,38.9
2022-08-22T00:17:22.669Z,39
2022-08-22T00:23:04.205Z,39
2022-08-22T00:28:50.797Z,39.1
2022-08-22T00:34:28.797Z,39.1
2022-08-22T00:40:12.745Z,39.1
2022-08-22T00:51:25.029Z,39.2
2022-08-22T00:56:41.581Z,39.3
2022-08-22T01:02:34.033Z,39.3
2022-08-22T01:08:26.345Z,39.3
2022-08-22T01:14:02.554Z,39.3
2022-08-22T01:19:39.555Z,39.4
2022-08-22T01:30:56.595Z,39.4
2022-08-22T01:36:38.521Z,39.4
2022-08-22T01:42:34.053Z,39.5
2022-08-22T01:49:04.355Z,39.6
2022-08-22T01:54:40.218Z,39.6
2022-08-22T01:59:50.740Z,39.6
2022-08-22T02:05:39.834Z,39.6
2022-08-22T02:11:12.608Z,39.6
2022-08-22T02:16:35.797Z,39.6
2022-08-22T02:22:01.785Z,39.6
2022-08-22T02:27:47.890Z,39.7
2022-08-22T02:33:34.124Z,39.7
2022-08-22T02:39:15.581Z,39.8
2022-08-22T02:44:57.128Z,39.8
2022-08-22T02:50:37.506Z,39.8
2022-08-22T02:56:01.552Z,39.8
2022-08-22T03:07:44.428Z,39.8
2022-08-22T03:13:06.096Z,39.8
2022-08-22T03:24:06.927Z,39.8
2022-08-22T03:30:23.492Z,39.9
2022-08-22T03:41:37.845Z,39.9
2022-08-22T03:58:23.931Z,39.9
2022-08-22T04:04:39.480Z,39.9
2022-08-22T04:10:46.145Z,39.9
2022-08-22T04:16:25.292Z,39.9
2022-08-22T04:22:04.202Z,39.9
2022-08-22T04:33:04.215Z,40
2022-08-22T04:38:42.303Z,40
2022-08-22T04:44:48.554Z,40
2022-08-22T04:50:40.017Z,40
2022-08-22T04:56:27.099Z,40
2022-08-22T05:02:09.305Z,40
2022-08-22T05:08:09.453Z,40
2022-08-22T05:13:55.339Z,40.1
2022-08-22T05:19:28.541Z,40
2022-08-22T05:25:17.413Z,40
2022-08-22T05:31:05.904Z,40.1
2022-08-22T05:36:52.891Z,40.1
2022-08-22T05:42:32.997Z,40.1
2022-08-22T05:48:09.450Z,40.1
2022-08-22T05:53:50.328Z,40.1
2022-08-22T05:59:42.001Z,40.1
2022-08-22T06:05:19.664Z,40.1
2022-08-22T06:10:59.263Z,40.1
2022-08-22T06:16:53.763Z,40.1
2022-08-22T06:22:51.927Z,40.1
2022-08-22T06:28:37.671Z,40.1
2022-08-22T06:34:55.019Z,40.1
2022-08-22T06:40:19.736Z,40.1
2022-08-22T06:45:58.242Z,40.1
2022-08-22T06:51:41.356Z,40.1
2022-08-22T06:57:25.308Z,39.8
2022-08-22T07:03:24.259Z,39.8
2022-08-22T07:09:08.988Z,39.8
2022-08-22T07:14:49.419Z,39.8
2022-08-22T07:20:30.401Z,39.8
2022-08-22T07:26:11.133Z,39.8
2022-08-22T07:31:56.736Z,39.8
2022-08-22T07:37:59.213Z,39.8
2022-08-22T07:43:42.101Z,39.8
2022-08-22T07:50:05.893Z,39.8
2022-08-22T07:56:06.028Z,39.8
2022-08-22T08:01:47.509Z,39.8
2022-08-22T08:07:30.327Z,40.1
2022-08-22T08:13:18.220Z,40.8
2022-08-22T08:18:55.371Z,41.8
2022-08-22T08:24:36.297Z,42.7
2022-08-22T08:30:31.966Z,43.6
2022-08-22T08:36:52.971Z,44.4
2022-08-22T08:42:46.879Z,45.3
2022-08-22T08:48:37.408Z,45.9
2022-08-22T08:54:23.926Z,46.1
2022-08-22T09:45:13.076Z,50.1
2022-08-22T09:51:29.059Z,50.6
2022-08-22T09:57:40.708Z,51.1
2022-08-22T10:03:40.024Z,51.4
2022-08-22T10:09:53.618Z,51.8
2022-08-22T10:16:03.113Z,52
2022-08-22T10:27:29.446Z,52.8
2022-08-22T10:33:22.944Z,53.2
2022-08-22T10:39:27.444Z,53.8
2022-08-22T10:45:35.718Z,54.1
2022-08-22T10:51:45.132Z,54.3
2022-08-22T10:57:53.629Z,54.9
2022-08-22T11:04:28.745Z,55.5
2022-08-22T11:10:27.362Z,56
2022-08-22T11:16:25.590Z,56.6
2022-08-22T11:22:54.053Z,57.1
2022-08-22T11:29:30.509Z,57.7
2022-08-22T11:35:43.868Z,58.3
2022-08-22T11:42:14.146Z,58.7
2022-08-22T11:48:18.101Z,58.9
2022-08-22T11:54:14.304Z,59.3
2022-08-22T12:00:15.709Z,59.3
2022-08-22T12:06:16.158Z,59.3
2022-08-22T12:12:13.652Z,59.2
2022-08-22T12:19:09.556Z,59.1
2022-08-22T12:26:00.996Z,59.1
2022-08-22T12:38:44.869Z,58.9
2022-08-22T12:44:50.218Z,58.8
2022-08-22T12:50:40.398Z,58.1
2022-08-22T12:56:31.248Z,58.3
2022-08-22T13:02:50.916Z,58.2
2022-08-22T13:15:10.844Z,58.9
2022-08-22T13:21:37.024Z,58.8
2022-08-22T13:28:08.335Z,58.8
2022-08-22T13:34:07.851Z,58.7
2022-08-22T13:40:09.960Z,58.7
2022-08-22T13:52:29.483Z,58.5
2022-08-22T13:58:52.416Z,58.4
2022-08-22T14:05:36.976Z,58.4
2022-08-22T14:12:01.777Z,58.3
2022-08-22T14:18:07.213Z,58.3
2022-08-22T14:24:45.494Z,58.1
2022-08-22T14:30:48.867Z,58.1
2022-08-22T14:36:59.264Z,58
2022-08-22T14:43:22.396Z,57.9
2022-08-22T14:50:15.560Z,57.8
2022-08-22T15:01:55.046Z,57.7
2022-08-22T15:07:54.113Z,57.6
2022-08-22T15:13:58.076Z,57.5
2022-08-22T15:19:57.968Z,57.4
2022-08-22T15:26:08.413Z,57.4
2022-08-22T15:32:20.163Z,57.3
2022-08-22T15:38:14.990Z,57.3
2022-08-22T15:44:14.775Z,57.1
2022-08-22T15:50:36.339Z,57.1
2022-08-22T15:56:58.199Z,57
2022-08-22T16:03:23.491Z,56.9
2022-08-22T16:09:06.217Z,56.9
2022-08-22T16:14:48.994Z,56.8
2022-08-22T16:20:36.115Z,56.8
2022-08-22T16:26:16.506Z,56.6
2022-08-22T16:32:32.712Z,56.6
2022-08-22T16:38:11.714Z,56.5
2022-08-22T16:43:34.582Z,56.4
2022-08-22T16:49:38.578Z,56.4
2022-08-22T16:55:15.562Z,56.3
2022-08-22T17:01:47.446Z,56.3
2022-08-22T17:07:27.068Z,56.2
2022-08-22T17:13:06.725Z,56.1
2022-08-22T17:19:01.159Z,56
2022-08-22T17:25:04.862Z,55.9
2022-08-22T17:30:30.655Z,55.9
2022-08-22T17:41:52.211Z,55.8
2022-08-22T17:47:54.825Z,55.7
2022-08-22T17:53:33.174Z,55.6
2022-08-22T17:59:51.796Z,55.6
2022-08-22T18:05:38.071Z,55.5
2022-08-22T18:11:56.925Z,55.4
2022-08-22T18:17:32.514Z,55.4
2022-08-22T18:23:21.600Z,55.4
2022-08-22T18:29:34.501Z,55.3
2022-08-22T18:34:57.231Z,55.2
2022-08-22T18:41:06.493Z,55.2
2022-08-22T18:47:09.764Z,55.1
2022-08-22T18:53:24.789Z,55
2022-08-22T18:59:21.749Z,54.9
2022-08-22T19:05:03.323Z,54.9
2022-08-22T19:15:52.484Z,54.8
2022-08-22T19:21:50.489Z,54.8
2022-08-22T19:27:31.052Z,54.7
2022-08-22T19:33:18.633Z,54.6
2022-08-22T19:39:13.704Z,54.6
2022-08-22T19:44:50.156Z,54.5
2022-08-22T19:50:16.060Z,54.4
2022-08-22T19:55:57.342Z,54.4
2022-08-22T20:01:47.881Z,54.4
2022-08-22T20:08:04.540Z,54.3
2022-08-22T20:13:35.886Z,54.3
2022-08-22T20:25:58.956Z,54.1
2022-08-22T20:31:49.386Z,54.1
2022-08-22T20:38:22.764Z,54
2022-08-22T20:44:56.024Z,54
2022-08-22T20:50:16.831Z,53.9
2022-08-22T20:56:00.159Z,53.9
2022-08-22T21:01:48.271Z,53.8
2022-08-22T21:07:29.037Z,53.8
2022-08-22T21:13:11.731Z,53.7
2022-08-22T21:18:50.851Z,53.6
2022-08-22T21:35:20.721Z,53.5
2022-08-22T21:46:11.432Z,53.4
2022-08-22T21:52:03.405Z,53.4
2022-08-22T22:04:25.411Z,53.3
2022-08-22T22:10:11.785Z,53.2
2022-08-22T22:15:48.733Z,53.1
2022-08-22T22:21:25.673Z,53.1
2022-08-22T22:27:36.042Z,53.1
2022-08-22T22:33:14.285Z,53
2022-08-22T22:38:57.383Z,52.9
2022-08-22T22:44:40.128Z,52.9
2022-08-22T22:50:07.644Z,52.9
2022-08-22T22:55:41.574Z,52.8
2022-08-22T23:01:59.973Z,52.8
2022-08-22T23:07:36.436Z,52.7
2022-08-22T23:13:28.901Z,52.7
2022-08-22T23:19:19.754Z,52.6
2022-08-22T23:24:57.382Z,52.6
2022-08-22T23:30:33.969Z,52.5
2022-08-22T23:36:16.382Z,52.5
2022-08-22T23:41:58.507Z,52.4
2022-08-22T23:58:19.850Z,52.3
